LEAO

Ciudad Real Airport

Ciudad Real, Spain
TAF LEAO 190800Z 1909/1918 08008KT 9999 SCT045 PROB30 1909/1918 4000 RA BKN012
Issued Valid From Valid To
Oct-19 @ 08:00 UTC
(2 hours ago)
Oct-19 @ 09:00 UTC
(an hour ago)
Oct-19 @ 18:00 UTC
(in 8 hours)
Oct-19 @ 09:00 to Oct-19 @ 18:00
TAF LEAO 190800Z 1909/1918 08008KT 9999 SCT045
Wind Visibility Clouds
80° at 8 knots 10,000+ meters
  • Scattered at 4,500' AGL
Probable  (Probability 30%) Oct-19 @ 09:00 to Oct-19 @ 18:00
PROB30 1909/1918 4000 RA BKN012
Visibility Clouds Conditions
4,007 meters
  • Broken at 1,200' AGL
  • Rain
TAF LEAO 190800Z 1909/1918 08008KT 9999 SCT045 PROB30 1909/1918 4000 RA BKN012
Issued Oct-19 @ 08:00 UTC
(2 hours ago)
Valid From Oct-19 @ 09:00 UTC
(an hour ago)
Valid To Oct-19 @ 18:00 UTC
(in 8 hours)
Oct-19 @ 09:00 - Oct-19 @ 18:00
Wind Visibility
80° at 8 knots 10,000+ meters
Clouds
  • Scattered at 4,500' AGL
Probability 30% Probable Oct-19 @ 09:00 - Oct-19 @ 18:00
Clouds
  • Broken at 1,200' AGL
Conditions
  • Rain